LICR/REG METAR and TAF weather

Enter ICAO airport designator
Station Type Date Time Source
LICR METAR 2020/01/17 13:50 UTC NOAA

LICR 171350Z 35013KT 9999 SCT040 14/06 Q1025


Station Type Date Time Source
LICR Decoded METAR 2020/01/17 13:50 UTC NOAA

Reggio Calabria, Italy (LICR) 38-04N 015-39E 21M
Jan 17, 2020 - 08:50 AM EST / 2020.01.17 1350 UTC
Wind: from the N (350 degrees) at 15 MPH (13 KT):0
Visibility: greater than 7 mile(s):0
Sky conditions: partly cloudy
Temperature: 57 F (14 C)
Dew Point: 42 F (6 C)
Relative Humidity: 58%
Pressure (altimeter): 30.27 in. Hg (1025 hPa)
ob: LICR 171350Z 35013KT 9999 SCT040 14/06 Q1025
cycle: 14

Station Type Date Time Source
LICR TAF 2020/01/17 12:21 UTC NOAA

TAF LICR 171100Z 1712/1812 35012KT 9999 SCT030

Example: see airport list